EVLA

Liepāja International Airport

Liepāja, Latvia
METAR EVLA 230950Z AUTO 26021G34KT 9999 FEW009/// BKN012/// OVC016/// 11/09 Q0988
Observed Flight Rules
Oct-23 @ 09:50 UTC (28 minutes ago) Marginal Visual Flight Rules
Wind Visibility Clouds
260° at 21 knots
 Gusting to 34 knots
10,000+ meters
  • Few at 900' AGL
  • Broken at 1,200' AGL
  • Overcast at 1,600' AGL
Temperatures Readings
Current 11°C / 52°F
Dewpoint 9°C / 48°F
Humidity 88%
Altimeter 29.17" Hg
Pressure 988 hPa
Elevation 4
METAR EVLA 230950Z AUTO 26021G34KT 9999 FEW009/// BKN012/// OVC016/// 11/09 Q0988
Observed Flight Rules
Oct-23 @ 09:50 UTC
(28 minutes ago)
MVFR
Wind Visibility
260° at 21 knots
 Gusting to 34 knots
10,000+ meters
Clouds
  • Few at 900' AGL
  • Broken at 1,200' AGL
  • Overcast at 1,600' AGL
Temperature Dewpoint
11°C / 52°F 9°C / 48°F
Humidity Altimeter Pressure
88% 29.17" Hg 988 hPa